Time;durP1;ratioP1;P1;durP2;ratioP2;P2;SDS_P1;SDS_P2;PMS_P1;PMS_P2;Temp;Humidity;BMP_temperature;BMP_pressure;BME280_temperature;BME280_humidity;BME280_pressure;Samples;Min_cycle;Max_cycle;Signal;HPM_P1;HPM_P2
2022/02/14 00:01:54;;;;;;;5.00;2.72;;;;;;;26.50;27.74;95981.44;4992771;28;20029;-62
2022/02/14 00:04:19;;;;;;;6.03;3.03;;;;;;;26.51;27.88;95977.84;4993564;28;20116;-62
2022/02/14 00:06:45;;;;;;;7.85;2.80;;;;;;;26.50;27.81;95971.75;4990112;28;20033;-61
2022/02/14 00:09:10;;;;;;;8.15;2.42;;;;;;;26.52;27.92;95974.28;4992762;28;20120;-62
2022/02/14 00:11:36;;;;;;;5.25;2.75;;;;;;;26.51;27.73;95972.59;4998103;28;20535;-62
2022/02/14 00:14:01;;;;;;;4.22;2.47;;;;;;;26.50;27.89;95965.69;4997100;28;20064;-62
2022/02/14 00:16:27;;;;;;;5.88;2.40;;;;;;;26.50;27.86;95955.16;4999550;28;20788;-62
2022/02/14 00:18:52;;;;;;;4.55;2.38;;;;;;;26.50;27.79;95950.72;4995598;28;20499;-60
2022/02/14 00:21:18;;;;;;;4.47;2.53;;;;;;;26.50;27.75;95956.00;4996037;28;20040;-62
2022/02/14 00:23:43;;;;;;;6.75;2.78;;;;;;;26.50;27.61;95953.34;4997012;28;20876;-61
2022/02/14 00:26:08;;;;;;;6.53;2.55;;;;;;;26.50;27.87;95955.16;4996793;28;20044;-61
2022/02/14 00:28:34;;;;;;;5.00;2.30;;;;;;;26.49;27.95;95943.81;4998254;28;20039;-61
2022/02/14 00:30:59;;;;;;;7.05;2.67;;;;;;;26.50;27.89;95940.22;4997618;28;20202;-62
2022/02/14 00:33:25;;;;;;;5.15;2.20;;;;;;;26.48;27.79;95937.69;4995243;28;20700;-62
2022/02/14 00:35:50;;;;;;;5.82;2.30;;;;;;;26.49;27.78;95933.28;4996603;28;20093;-62
2022/02/14 00:38:16;;;;;;;4.45;2.10;;;;;;;26.48;27.83;95927.19;4979749;28;20036;-62
2022/02/14 00:40:41;;;;;;;3.90;2.20;;;;;;;26.48;27.83;95927.19;5013495;28;20776;-63
2022/02/14 00:43:07;;;;;;;3.78;2.00;;;;;;;26.49;27.90;95928.03;4997229;28;20034;-61
2022/02/14 00:45:32;;;;;;;4.45;2.38;;;;;;;26.48;27.99;95921.13;4997224;28;20029;-61
2022/02/14 00:47:58;;;;;;;3.70;2.17;;;;;;;26.49;27.92;95914.91;4996889;28;20472;-63
2022/02/14 00:50:24;;;;;;;4.53;2.20;;;;;;;26.48;28.04;95918.50;4979007;28;20036;-62
2022/02/14 00:52:49;;;;;;;5.35;2.30;;;;;;;26.47;27.74;95909.75;4999845;28;20072;-63
2022/02/14 00:55:15;;;;;;;2.92;2.10;;;;;;;26.48;27.77;95916.69;5009021;28;20091;-61
2022/02/14 00:57:40;;;;;;;5.05;2.30;;;;;;;26.48;27.86;95907.97;5011486;28;20619;-61
2022/02/14 01:00:09;;;;;;;5.78;2.20;;;;;;;26.47;27.85;95909.75;4995214;28;20214;-61
2022/02/14 01:02:35;;;;;;;5.07;2.15;;;;;;;26.47;27.92;95912.38;5023339;28;20087;-61
2022/02/14 01:05:00;;;;;;;4.53;2.10;;;;;;;26.46;27.91;95896.72;5009857;28;20954;-62
2022/02/14 01:07:26;;;;;;;4.93;2.03;;;;;;;26.47;27.74;95903.69;5004441;28;20029;-62
2022/02/14 01:09:51;;;;;;;3.63;2.05;;;;;;;26.46;27.86;95900.19;5008997;28;20091;-62
2022/02/14 01:12:17;;;;;;;4.40;2.10;;;;;;;26.45;27.88;95895.91;5008268;28;20944;-62
2022/02/14 01:14:42;;;;;;;4.60;2.30;;;;;;;26.46;27.76;95894.94;4992264;28;20068;-61
2022/02/14 01:17:08;;;;;;;3.80;2.00;;;;;;;26.45;27.64;95889.78;5010762;28;20451;-62
2022/02/14 01:19:33;;;;;;;4.30;1.67;;;;;;;26.45;27.74;95887.16;5011446;28;20504;-62
2022/02/14 01:21:59;;;;;;;2.88;1.73;;;;;;;26.45;27.84;95889.78;5011822;28;20483;-62
2022/02/14 01:24:24;;;;;;;3.50;1.85;;;;;;;26.45;27.80;95890.66;4999718;28;20025;-62
2022/02/14 01:26:50;;;;;;;4.82;1.77;;;;;;;26.45;27.90;95887.16;4995314;28;20030;-62
2022/02/14 01:29:15;;;;;;;3.10;1.83;;;;;;;26.43;27.80;95876.75;4997490;28;20036;-61
2022/02/14 01:31:41;;;;;;;3.28;1.85;;;;;;;26.45;27.85;95884.53;4996913;28;20909;-61
2022/02/14 01:34:07;;;;;;;3.60;1.73;;;;;;;26.45;27.74;95879.28;4990708;28;20025;-61
2022/02/14 01:36:32;;;;;;;3.92;1.92;;;;;;;26.44;27.84;95872.34;5007107;28;20041;-62
2022/02/14 01:38:57;;;;;;;4.03;2.03;;;;;;;26.44;27.77;95870.59;4987966;28;20028;-61
2022/02/14 01:41:23;;;;;;;3.55;1.85;;;;;;;26.44;27.75;95867.09;4993127;28;20036;-62
2022/02/14 01:43:48;;;;;;;2.90;1.67;;;;;;;26.43;27.75;95860.19;4986457;28;20025;-62
2022/02/14 01:46:13;;;;;;;2.50;1.67;;;;;;;26.42;27.88;95861.97;4987358;28;20054;-62
2022/02/14 01:48:39;;;;;;;2.25;1.42;;;;;;;26.42;27.78;95864.59;4991171;28;22110;-62
2022/02/14 01:51:05;;;;;;;2.45;1.83;;;;;;;26.42;27.66;95863.72;4986999;28;20116;-62
2022/02/14 01:53:30;;;;;;;4.80;1.70;;;;;;;26.41;27.78;95852.41;4989797;28;20109;-62
2022/02/14 01:55:56;;;;;;;3.47;1.70;;;;;;;26.42;27.79;95850.59;4990265;28;20037;-62
2022/02/14 01:58:22;;;;;;;2.38;1.60;;;;;;;26.42;27.81;95853.22;4998077;28;20037;-62
2022/02/14 02:00:48;;;;;;;1.88;1.27;;;;;;;26.41;27.77;95846.28;4948914;28;1129555;-62
2022/02/14 02:03:15;;;;;;;2.58;1.45;;;;;;;26.42;27.93;95847.97;4972486;28;20052;-61
2022/02/14 02:05:47;;;;;;;4.65;1.60;;;;;;;26.40;27.73;95844.63;4988266;28;20033;-62
2022/02/14 02:08:13;;;;;;;2.72;1.77;;;;;;;26.41;27.81;95841.03;4986250;28;20021;-62
2022/02/14 02:10:38;;;;;;;2.47;1.50;;;;;;;26.40;27.80;95829.72;4974540;28;20204;-61
2022/02/14 02:13:04;;;;;;;2.13;1.70;;;;;;;26.41;27.79;95830.53;4987182;28;20087;-62
2022/02/14 02:15:31;;;;;;;4.05;1.80;;;;;;;26.41;27.78;95825.28;4990855;28;20508;-63
2022/02/14 02:17:56;;;;;;;3.55;1.55;;;;;;;26.40;27.86;95828.88;4991348;28;20033;-62
2022/02/14 02:20:22;;;;;;;2.72;1.67;;;;;;;26.40;27.84;95828.88;4990584;28;20033;-62
2022/02/14 02:22:49;;;;;;;4.00;1.35;;;;;;;26.38;27.70;95817.66;4988230;28;20029;-63
2022/02/14 02:25:15;;;;;;;2.90;1.60;;;;;;;26.38;27.81;95821.09;4985279;28;20116;-62
2022/02/14 02:27:42;;;;;;;4.50;1.60;;;;;;;26.40;27.78;95818.34;4989797;28;20091;-62
2022/02/14 02:30:08;;;;;;;2.25;1.38;;;;;;;26.36;27.81;95807.25;4988571;28;20339;-62
2022/02/14 02:32:34;;;;;;;1.80;1.33;;;;;;;26.39;27.81;95806.19;4986544;28;20029;-61
2022/02/14 02:35:02;;;;;;;3.13;1.73;;;;;;;26.39;27.84;95806.19;4987442;28;21528;-62
2022/02/14 02:37:28;;;;;;;3.17;1.52;;;;;;;26.38;27.79;95800.06;4982772;28;20021;-62
2022/02/14 02:39:54;;;;;;;2.40;1.20;;;;;;;26.38;27.85;95792.19;4983642;28;20053;-62
2022/02/14 02:42:20;;;;;;;1.83;1.35;;;;;;;26.38;27.78;95794.81;4994803;28;20033;-63
2022/02/14 02:44:45;;;;;;;3.42;1.80;;;;;;;26.38;27.82;95788.75;4989481;28;20032;-63
2022/02/14 02:47:12;;;;;;;3.08;1.55;;;;;;;26.37;27.89;95781.78;4988164;28;20032;-61
2022/02/14 02:49:38;;;;;;;2.88;1.42;;;;;;;26.37;27.85;95777.41;4983183;28;20142;-61
2022/02/14 02:52:04;;;;;;;2.08;1.20;;;;;;;26.38;27.83;95778.25;4994824;28;20030;-63
2022/02/14 02:54:30;;;;;;;1.63;1.38;;;;;;;26.37;27.75;95768.66;5000897;28;20060;-61
2022/02/14 02:56:56;;;;;;;2.42;1.40;;;;;;;26.33;27.76;95763.66;4968825;28;20033;-62
2022/02/14 02:59:22;;;;;;;1.80;1.50;;;;;;;26.35;27.78;95767.00;4988443;28;20095;-62
2022/02/14 03:01:48;;;;;;;2.88;1.30;;;;;;;26.36;27.85;95765.22;5002831;28;20025;-62
2022/02/14 03:04:14;;;;;;;2.15;1.10;;;;;;;26.35;27.69;95756.47;4990511;28;21750;-61
2022/02/14 03:06:39;;;;;;;1.30;0.93;;;;;;;26.36;27.82;95754.72;4985193;28;20038;-62
2022/02/14 03:09:05;;;;;;;2.25;1.38;;;;;;;26.34;27.73;95752.19;4989517;28;20033;-62
2022/02/14 03:11:31;;;;;;;1.98;1.20;;;;;;;26.35;27.87;95755.63;4983785;28;21712;-61
2022/02/14 03:13:56;;;;;;;2.63;1.33;;;;;;;26.35;27.75;95748.59;4991235;28;20037;-62
2022/02/14 03:16:22;;;;;;;1.98;0.90;;;;;;;26.35;27.71;95753.84;4987179;28;20116;-62
2022/02/14 03:18:47;;;;;;;1.50;1.05;;;;;;;26.35;27.70;95753.84;4988957;28;20539;-62
2022/02/14 03:21:13;;;;;;;2.47;1.30;;;;;;;26.33;27.72;95742.63;5000319;28;20026;-62
2022/02/14 03:23:38;;;;;;;2.47;1.50;;;;;;;26.33;27.75;95737.38;4987373;28;20072;-63
2022/02/14 03:26:04;;;;;;;2.17;1.45;;;;;;;26.34;27.75;95740.84;4986244;28;21107;-63
2022/02/14 03:28:30;;;;;;;1.33;1.13;;;;;;;26.34;27.63;95749.56;4990516;28;20560;-63
2022/02/14 03:30:56;;;;;;;1.55;1.08;;;;;;;26.32;27.60;95743.56;4999840;28;20029;-61
2022/02/14 03:33:22;;;;;;;1.77;1.08;;;;;;;26.33;27.72;95745.25;4999488;28;20372;-61
2022/02/14 03:35:47;;;;;;;1.55;1.10;;;;;;;26.33;27.80;95740.00;4992455;28;20695;-63
2022/02/14 03:38:13;;;;;;;1.63;1.10;;;;;;;26.33;27.70;95729.50;4986155;28;20897;-62
2022/02/14 03:40:38;;;;;;;1.45;1.10;;;;;;;26.32;27.76;95732.25;4968161;28;20037;-62
2022/02/14 03:43:04;;;;;;;1.60;1.20;;;;;;;26.33;27.72;95733.91;5005668;28;20862;-62
2022/02/14 03:45:30;;;;;;;2.13;1.10;;;;;;;26.32;27.66;95733.06;4981574;28;20112;-60
2022/02/14 03:47:55;;;;;;;1.25;0.90;;;;;;;26.30;27.72;95729.72;4989984;28;20030;-63
2022/02/14 03:50:22;;;;;;;2.15;1.30;;;;;;;26.32;27.72;95726.97;4983828;28;20033;-63
2022/02/14 03:52:47;;;;;;;1.38;1.02;;;;;;;26.30;27.71;95724.47;4981880;28;20458;-62
2022/02/14 03:55:12;;;;;;;2.30;1.17;;;;;;;26.31;27.49;95723.50;5001213;28;20021;-62
2022/02/14 03:57:38;;;;;;;1.98;1.08;;;;;;;26.31;27.75;95726.13;4992171;28;20032;-61
2022/02/14 04:00:11;;;;;;;3.92;1.35;;;;;;;26.31;27.64;95728.75;4987149;28;20033;-63
2022/02/14 04:02:37;;;;;;;3.17;1.20;;;;;;;26.32;27.72;95726.97;4986423;28;20048;-63
2022/02/14 04:05:03;;;;;;;2.25;1.20;;;;;;;26.31;27.71;95726.13;5001149;28;20029;-62
2022/02/14 04:07:29;;;;;;;2.05;1.17;;;;;;;26.30;27.72;95734.97;5010324;28;20095;-61
2022/02/14 04:09:54;;;;;;;1.90;0.98;;;;;;;26.27;27.57;95722.06;4989329;28;20041;-62
2022/02/14 04:12:20;;;;;;;1.60;1.10;;;;;;;26.30;27.76;95727.09;4991731;28;20029;-61
2022/02/14 04:14:45;;;;;;;1.40;0.93;;;;;;;26.30;27.74;95731.50;4990229;28;20060;-62
2022/02/14 04:17:10;;;;;;;2.80;1.05;;;;;;;26.29;27.78;95728.06;4988655;28;20036;-61
2022/02/14 04:19:36;;;;;;;0.95;0.80;;;;;;;26.28;27.64;95726.34;4985444;28;20028;-62
2022/02/14 04:22:02;;;;;;;1.38;1.17;;;;;;;26.26;27.83;95715.13;4986851;28;22227;-62
2022/02/14 04:24:27;;;;;;;1.73;1.20;;;;;;;26.29;27.78;95722.78;4984758;28;20029;-62
2022/02/14 04:26:53;;;;;;;1.58;0.90;;;;;;;26.29;27.72;95722.78;4985115;28;20458;-62
2022/02/14 04:29:18;;;;;;;1.67;0.90;;;;;;;26.28;27.61;95721.09;4985598;28;20033;-61
2022/02/14 04:31:44;;;;;;;1.80;0.85;;;;;;;26.28;27.74;95721.09;4984775;28;20036;-62
2022/02/14 04:34:09;;;;;;;1.70;0.90;;;;;;;26.28;27.77;95718.47;4993211;28;20035;-62
2022/02/14 04:36:34;;;;;;;1.85;0.90;;;;;;;26.27;27.76;95708.91;5010499;28;20678;-61
2022/02/14 04:39:00;;;;;;;1.55;0.95;;;;;;;26.28;27.63;95715.84;5009330;28;20068;-62
2022/02/14 04:41:25;;;;;;;1.45;0.80;;;;;;;26.26;27.69;95712.50;5023642;28;20037;-61
2022/02/14 04:43:52;;;;;;;0.82;0.70;;;;;;;26.25;27.76;95702.91;5007909;28;20026;-62
2022/02/14 04:46:18;;;;;;;3.63;1.20;;;;;;;26.26;27.80;95706.41;5003806;28;20040;-61
2022/02/14 04:48:44;;;;;;;2.95;1.05;;;;;;;26.27;27.66;95708.09;5000457;28;20091;-62
2022/02/14 04:51:09;;;;;;;2.05;0.90;;;;;;;26.26;27.79;95704.63;5000559;28;20670;-62
2022/02/14 04:53:35;;;;;;;1.58;0.85;;;;;;;26.26;27.79;95702.00;5001442;28;20029;-62
2022/02/14 04:56:00;;;;;;;1.05;0.75;;;;;;;26.27;27.65;95708.09;5002133;28;20033;-62
2022/02/14 04:58:26;;;;;;;1.88;0.88;;;;;;;26.24;27.77;95698.63;4999924;28;20033;-61
2022/02/14 05:00:52;;;;;;;1.25;0.80;;;;;;;26.23;27.71;95696.94;5005326;28;20756;-62
2022/02/14 05:03:18;;;;;;;1.85;0.90;;;;;;;26.25;27.74;95695.03;4986650;28;20064;-62
2022/02/14 05:05:43;;;;;;;1.73;1.05;;;;;;;26.25;27.66;95692.41;5010659;28;20029;-62
2022/02/14 05:08:08;;;;;;;3.15;1.20;;;;;;;26.23;27.77;95692.53;4992329;28;20731;-62
2022/02/14 05:10:34;;;;;;;2.45;1.30;;;;;;;26.23;27.65;95694.31;4992115;28;20052;-61
2022/02/14 05:12:59;;;;;;;1.55;1.00;;;;;;;26.22;27.79;95692.63;4996935;28;20029;-62
2022/02/14 05:15:25;;;;;;;1.27;1.00;;;;;;;26.17;27.69;95679.00;5005008;28;20698;-61
2022/02/14 05:17:50;;;;;;;1.38;1.00;;;;;;;26.21;27.72;95681.28;4984611;28;20064;-61
2022/02/14 05:20:15;;;;;;;0.73;0.70;;;;;;;26.21;27.84;95685.72;4993271;28;21087;-62
2022/02/14 05:22:41;;;;;;;1.77;0.82;;;;;;;26.21;27.83;95685.72;4992308;28;22041;-63
2022/02/14 05:25:07;;;;;;;1.92;1.00;;;;;;;26.20;27.77;95684.03;5008016;28;20040;-61
2022/02/14 05:27:32;;;;;;;1.58;0.70;;;;;;;26.20;27.79;95690.09;4990439;28;20025;-62
2022/02/14 05:29:58;;;;;;;0.63;0.63;;;;;;;26.20;27.79;95691.91;4988791;28;20045;-62
2022/02/14 05:32:23;;;;;;;5.38;0.80;;;;;;;26.20;27.82;95691.91;4997359;28;20037;-62
2022/02/14 05:34:48;;;;;;;1.10;0.90;;;;;;;26.19;27.80;95690.22;4997004;28;20169;-62
2022/02/14 05:37:14;;;;;;;1.10;0.90;;;;;;;26.18;27.79;95694.66;4989120;28;20044;-62
2022/02/14 05:39:44;;;;;;;1.00;0.90;;;;;;;26.18;27.90;95693.81;5006027;28;20025;-61
2022/02/14 05:42:10;;;;;;;1.08;0.70;;;;;;;26.16;27.86;95693.09;4992590;28;20136;-62
2022/02/14 05:44:35;;;;;;;1.20;0.90;;;;;;;26.19;27.74;95698.94;4990086;28;20112;-62
2022/02/14 05:47:01;;;;;;;1.55;0.90;;;;;;;26.18;27.80;95694.66;4990799;28;20025;-62
2022/02/14 05:49:26;;;;;;;1.48;1.00;;;;;;;26.14;27.85;95692.34;4994324;28;23146;-62
2022/02/14 05:51:52;;;;;;;1.50;0.85;;;;;;;26.19;27.81;95692.84;4988440;28;20107;-62
2022/02/14 05:54:17;;;;;;;2.13;0.80;;;;;;;26.18;27.81;95697.28;4987253;28;20025;-63
2022/02/14 05:56:43;;;;;;;1.00;0.90;;;;;;;26.19;27.82;95700.72;4969467;28;20021;-63
2022/02/14 05:59:08;;;;;;;2.45;0.80;;;;;;;26.18;27.69;95694.66;4992620;28;20038;-62
2022/02/14 06:01:33;;;;;;;1.40;0.90;;;;;;;26.17;27.87;95698.22;5000322;28;20029;-63
2022/02/14 06:03:59;;;;;;;0.90;0.63;;;;;;;26.18;27.83;95697.28;4989887;28;20411;-62
2022/02/14 06:06:24;;;;;;;0.63;0.60;;;;;;;26.17;27.78;95705.25;4984899;28;20745;-62
2022/02/14 06:08:50;;;;;;;1.17;0.80;;;;;;;26.18;27.82;95704.31;4988251;28;20040;-62
2022/02/14 06:11:15;;;;;;;0.98;0.70;;;;;;;26.17;27.93;95702.63;5006870;28;20036;-62
2022/02/14 06:13:40;;;;;;;2.55;1.00;;;;;;;26.15;28.00;95705.38;4995318;28;20049;-61
2022/02/14 06:16:06;;;;;;;0.65;0.60;;;;;;;26.18;27.72;95709.56;4990813;28;20029;-62
2022/02/14 06:18:31;;;;;;;1.20;0.70;;;;;;;26.16;27.81;95707.03;4990577;28;20040;-61
2022/02/14 06:20:57;;;;;;;1.00;0.70;;;;;;;26.15;27.87;95710.63;4986111;28;20069;-61
2022/02/14 06:23:22;;;;;;;4.85;0.90;;;;;;;26.16;27.72;95708.84;4995531;28;20037;-61
2022/02/14 06:25:48;;;;;;;1.77;0.80;;;;;;;26.15;28.00;95710.63;4996907;28;20029;-61
2022/02/14 06:28:13;;;;;;;1.02;0.70;;;;;;;26.16;27.74;95712.28;5003723;28;20257;-63
2022/02/14 06:30:39;;;;;;;1.20;0.57;;;;;;;26.17;27.72;95707.88;4995497;28;20672;-64
2022/02/14 06:33:04;;;;;;;2.50;0.70;;;;;;;26.16;27.84;95716.72;5004298;28;20111;-62
2022/02/14 06:35:29;;;;;;;1.13;0.82;;;;;;;26.15;27.79;95704.50;5002244;28;20044;-63
2022/02/14 06:37:55;;;;;;;0.60;0.60;;;;;;;26.15;27.95;95709.75;5004295;28;20037;-63
2022/02/14 06:40:20;;;;;;;0.63;0.60;;;;;;;26.16;27.88;95711.47;5005250;28;20033;-62
2022/02/14 06:42:47;;;;;;;1.00;0.65;;;;;;;26.16;28.13;95711.47;5002810;28;20029;-62
2022/02/14 06:45:14;;;;;;;1.27;0.70;;;;;;;26.16;27.68;95717.53;5005178;28;20045;-63
2022/02/14 06:47:40;;;;;;;1.60;0.80;;;;;;;26.16;27.72;95708.84;5006009;28;20676;-62
2022/02/14 06:50:06;;;;;;;1.08;0.70;;;;;;;26.18;27.87;95720.06;5000358;28;20041;-62
2022/02/14 06:52:31;;;;;;;1.17;0.60;;;;;;;26.15;27.87;95721.13;5003615;28;20029;-61
2022/02/14 06:54:57;;;;;;;0.98;0.63;;;;;;;26.18;27.82;95709.56;5002373;28;20112;-62
2022/02/14 06:57:22;;;;;;;0.60;0.57;;;;;;;26.17;27.86;95718.38;4989909;28;20033;-63
2022/02/14 06:59:47;;;;;;;0.70;0.70;;;;;;;26.17;27.87;95710.50;4986568;28;20033;-61
2022/02/14 07:02:13;;;;;;;0.85;0.60;;;;;;;26.16;27.88;95712.28;4989755;28;22992;-62
2022/02/14 07:04:38;;;;;;;0.60;0.60;;;;;;;26.18;27.69;95714.81;5003709;28;20563;-62
2022/02/14 07:07:04;;;;;;;0.73;0.65;;;;;;;26.17;27.68;95718.38;4984234;28;20044;-61
2022/02/14 07:09:29;;;;;;;0.52;0.50;;;;;;;26.18;27.80;95720.91;4990325;28;20032;-62
2022/02/14 07:11:54;;;;;;;1.40;0.60;;;;;;;26.18;27.83;95720.06;4989798;28;20033;-61
2022/02/14 07:14:20;;;;;;;1.17;0.60;;;;;;;26.19;27.79;95719.09;4989531;28;22382;-61
2022/02/14 07:16:45;;;;;;;0.75;0.65;;;;;;;26.19;27.60;95721.72;4988439;28;20045;-60
2022/02/14 07:19:11;;;;;;;0.70;0.60;;;;;;;26.19;27.79;95725.22;4988439;28;20088;-62
2022/02/14 07:21:36;;;;;;;0.63;0.57;;;;;;;26.18;27.92;95720.06;4988067;28;20037;-62
2022/02/14 07:24:02;;;;;;;0.90;0.60;;;;;;;26.21;27.67;95730.34;4986558;28;20045;-62
2022/02/14 07:26:28;;;;;;;1.60;0.70;;;;;;;26.21;27.75;95727.72;4989440;28;20093;-61
2022/02/14 07:28:53;;;;;;;3.13;0.82;;;;;;;26.21;27.70;95730.34;4988481;28;20025;-61
2022/02/14 07:31:19;;;;;;;1.27;0.80;;;;;;;26.22;27.71;95721.53;5021453;28;21016;-62
2022/02/14 07:33:44;;;;;;;4.72;1.10;;;;;;;26.22;27.67;95726.78;4995989;28;20037;-62
2022/02/14 07:36:10;;;;;;;9.25;1.80;;;;;;;26.21;27.58;95730.34;5009329;28;21230;-63
2022/02/14 07:38:35;;;;;;;8.50;2.30;;;;;;;26.18;27.48;95726.16;5003414;28;20031;-62
2022/02/14 07:41:01;;;;;;;8.43;2.00;;;;;;;26.21;27.65;95725.91;5000530;28;20773;-62
2022/02/14 07:43:27;;;;;;;4.53;2.00;;;;;;;26.21;27.77;95730.34;5003645;28;20029;-63
2022/02/14 07:45:52;;;;;;;9.57;2.03;;;;;;;26.21;27.84;95725.09;4985192;28;20048;-62
2022/02/14 07:48:18;;;;;;;5.78;1.83;;;;;;;26.23;27.80;95733.69;4999469;28;20530;-63
2022/02/14 07:50:43;;;;;;;6.68;1.70;;;;;;;26.23;27.75;95729.28;5004082;28;20037;-64
2022/02/14 07:53:10;;;;;;;4.93;1.80;;;;;;;26.25;27.86;95725.72;5007794;28;20056;-63
2022/02/14 07:55:36;;;;;;;4.30;1.70;;;;;;;26.27;27.80;95724.69;4993188;28;21007;-62
2022/02/14 07:58:02;;;;;;;10.45;2.00;;;;;;;26.29;28.02;95724.56;4991302;28;20124;-62
2022/02/14 08:00:27;;;;;;;5.93;2.00;;;;;;;26.30;27.93;95721.00;5010384;28;20043;-60
2022/02/14 08:02:53;;;;;;;6.80;2.30;;;;;;;26.33;28.07;95724.25;4998822;28;20025;-62
2022/02/14 08:05:18;;;;;;;5.25;2.05;;;;;;;26.34;27.97;95725.06;4995277;28;20025;-63
2022/02/14 08:07:43;;;;;;;7.07;2.40;;;;;;;26.36;28.08;95728.44;4994711;28;20041;-63
2022/02/14 08:10:09;;;;;;;6.80;2.47;;;;;;;26.39;28.04;95722.13;4988523;28;20697;-62
2022/02/14 08:12:34;;;;;;;7.57;2.30;;;;;;;26.39;28.00;95722.94;5016681;28;21054;-61
2022/02/14 08:15:01;;;;;;;8.40;2.20;;;;;;;26.42;28.08;95727.13;4993579;28;20025;-63
2022/02/14 08:17:26;;;;;;;5.90;2.08;;;;;;;26.45;27.97;95729.56;4998564;28;20146;-63
2022/02/14 08:19:52;;;;;;;8.15;2.70;;;;;;;26.46;28.12;95715.47;4996711;28;20518;-62
2022/02/14 08:22:17;;;;;;;6.10;2.58;;;;;;;26.46;28.04;95715.47;4996283;28;20029;-63
2022/02/14 08:24:43;;;;;;;5.43;2.20;;;;;;;26.50;28.01;95713.47;4997242;28;20038;-63
2022/02/14 08:27:08;;;;;;;7.93;2.60;;;;;;;26.52;28.06;95709.78;4997551;28;20033;-63
2022/02/14 08:29:34;;;;;;;5.93;2.05;;;;;;;26.54;28.01;95709.66;5008227;28;20017;-63
2022/02/14 08:32:00;;;;;;;7.38;2.20;;;;;;;26.55;27.97;95709.53;4995287;28;20110;-63
2022/02/14 08:34:25;;;;;;;5.47;2.25;;;;;;;26.58;27.99;95714.56;4997699;28;20922;-65
2022/02/14 08:36:51;;;;;;;4.18;2.00;;;;;;;26.60;27.83;95709.19;4995037;28;20048;-62
2022/02/14 08:39:16;;;;;;;4.93;2.20;;;;;;;26.61;27.75;95714.34;4988040;28;20038;-62
2022/02/14 08:41:42;;;;;;;6.22;2.30;;;;;;;26.61;27.83;95711.72;4994665;28;20041;-62
2022/02/14 08:44:09;;;;;;;5.30;2.35;;;;;;;26.64;27.87;95712.44;5016011;28;20400;-62
2022/02/14 08:46:35;;;;;;;5.38;2.08;;;;;;;26.63;27.85;95708.13;4998142;28;20029;-64
2022/02/14 08:49:00;;;;;;;7.38;2.00;;;;;;;26.65;27.92;95708.88;4999011;28;20026;-60
2022/02/14 08:51:26;;;;;;;5.00;2.25;;;;;;;26.66;27.88;95714.00;5003382;28;20036;-61
2022/02/14 08:53:51;;;;;;;4.15;1.73;;;;;;;26.66;28.01;95705.28;5002702;28;20029;-61
2022/02/14 08:56:17;;;;;;;6.53;2.63;;;;;;;26.69;27.94;95708.53;4999699;28;20196;-62
2022/02/14 08:58:42;;;;;;;4.90;1.90;;;;;;;26.71;27.95;95701.38;4998177;28;20029;-62
2022/02/14 09:01:08;;;;;;;4.78;2.17;;;;;;;26.74;27.95;95705.56;5000809;28;20037;-61
2022/02/14 09:03:33;;;;;;;4.60;2.00;;;;;;;26.75;27.93;95701.97;4999275;28;20061;-62
2022/02/14 09:05:59;;;;;;;5.82;1.85;;;;;;;26.76;27.99;95692.31;4993950;28;21075;-62
2022/02/14 09:08:25;;;;;;;5.57;2.10;;;;;;;26.79;28.01;95699.94;4998444;28;20033;-62
2022/02/14 09:10:51;;;;;;;3.58;1.73;;;;;;;26.79;28.07;95686.81;4999413;28;20068;-63
2022/02/14 09:13:17;;;;;;;3.42;1.80;;;;;;;26.80;27.96;95694.59;4996183;28;20045;-61
2022/02/14 09:15:42;;;;;;;4.30;2.00;;;;;;;26.81;28.02;95692.81;4994672;28;20103;-63
2022/02/14 09:18:08;;;;;;;8.75;2.47;;;;;;;26.79;25.61;95687.66;4976216;28;20793;-61
2022/02/14 09:20:33;;;;;;;12.93;2.65;;;;;;;26.65;21.04;95679.97;4994861;28;20992;-59
2022/02/14 09:23:00;;;;;;;6.45;2.90;;;;;;;26.42;18.78;95682.47;4993709;28;20736;-61
2022/02/14 09:25:25;;;;;;;8.27;2.95;;;;;;;26.15;18.19;95684.38;4991762;28;20475;-61
2022/02/14 09:27:51;;;;;;;5.05;2.90;;;;;;;25.89;17.46;95683.63;5003718;28;20064;-59
2022/02/14 09:30:16;;;;;;;8.57;3.00;;;;;;;25.62;17.11;95679.38;5002902;28;20063;-58
2022/02/14 09:32:41;;;;;;;8.68;2.78;;;;;;;25.36;17.75;95688.06;5002716;28;20396;-59
2022/02/14 09:35:07;;;;;;;6.07;2.80;;;;;;;25.19;18.39;95681.34;5000129;28;20041;-60
2022/02/14 09:37:33;;;;;;;5.75;2.97;;;;;;;25.07;18.39;95672.56;4996942;28;20048;-59
2022/02/14 09:39:59;;;;;;;9.55;2.90;;;;;;;24.99;18.91;95674.84;4996623;28;20890;-59
2022/02/14 09:42:24;;;;;;;8.23;2.72;;;;;;;24.97;19.45;95669.69;4988233;28;20025;-60
2022/02/14 09:44:50;;;;;;;4.05;2.47;;;;;;;24.97;19.98;95664.47;4991011;28;20033;-62
2022/02/14 09:47:15;;;;;;;5.30;2.85;;;;;;;25.01;20.30;95668.56;4993183;28;20228;-62
2022/02/14 09:49:43;;;;;;;7.32;2.75;;;;;;;25.05;20.55;95662.16;4993602;28;20395;-62
2022/02/14 09:52:10;;;;;;;5.03;2.78;;;;;;;25.09;20.88;95667.22;5008643;28;20064;-61
2022/02/14 09:54:36;;;;;;;7.25;2.80;;;;;;;25.16;21.10;95665.81;5005225;28;20753;-60
2022/02/14 09:57:03;;;;;;;6.35;2.78;;;;;;;25.22;21.39;95665.44;5005050;28;20040;-62
2022/02/14 09:59:28;;;;;;;5.07;2.50;;;;;;;25.28;21.57;95658.94;5004315;28;20699;-61
2022/02/14 10:01:54;;;;;;;8.65;2.70;;;;;;;25.34;21.54;95662.88;5003966;28;20041;-62
2022/02/14 10:04:21;;;;;;;6.32;2.78;;;;;;;25.39;21.77;95660.78;5004686;28;20041;-62
2022/02/14 10:06:46;;;;;;;5.53;2.83;;;;;;;25.44;21.90;95666.56;5008688;28;21668;-61
2022/02/14 10:09:19;;;;;;;10.35;2.83;;;;;;;25.47;22.20;95661.09;5011271;28;20025;-61
2022/02/14 10:12:10;;;;;;;7.53;2.83;;;;;;;25.54;22.17;95659.72;5012187;28;20033;-61
2022/02/14 10:14:36;;;;;;;7.50;3.25;;;;;;;25.59;22.40;95667.28;4984028;28;20028;-61
2022/02/14 10:17:05;;;;;;;11.13;3.03;;;;;;;25.63;22.54;95667.94;4991590;28;20025;-62
2022/02/14 10:19:32;;;;;;;6.32;3.05;;;;;;;25.66;22.71;95668.53;5012857;28;20642;-62
2022/02/14 10:21:58;;;;;;;6.47;2.85;;;;;;;25.70;22.83;95663.91;5010368;28;20063;-62
2022/02/14 10:24:23;;;;;;;5.68;2.40;;;;;;;25.71;22.63;95665.59;5008564;28;22006;-62
2022/02/14 10:26:51;;;;;;;5.60;2.70;;;;;;;25.76;22.96;95663.50;5009028;28;20511;-62
2022/02/14 10:29:37;;;;;;;6.10;2.97;;;;;;;25.80;22.93;95664.94;5009281;28;20049;-62
2022/02/14 10:32:05;;;;;;;15.20;3.55;;;;;;;25.86;23.10;95665.47;5005889;28;20148;-63
2022/02/14 10:34:37;;;;;;;18.58;4.43;;;;;;;25.87;23.13;95667.13;5004828;28;20040;-63
2022/02/14 10:37:03;;;;;;;13.57;4.03;;;;;;;25.88;23.16;95663.53;5003691;28;20040;-62
2022/02/14 10:39:29;;;;;;;15.70;4.05;;;;;;;25.92;23.36;95672.88;5006671;28;20037;-62
2022/02/14 10:41:56;;;;;;;15.13;4.03;;;;;;;25.93;23.46;95666.72;5008535;28;20155;-61
2022/02/14 10:47:12;;;;;;;10.18;3.95;;;;;;;25.98;23.70;95674.22;5006905;28;20613;-62
2022/02/14 10:49:37;;;;;;;10.43;3.28;;;;;;;26.02;23.59;95671.28;5002941;28;20029;-62
2022/02/14 10:52:04;;;;;;;14.85;3.70;;;;;;;26.04;23.84;95664.13;5009863;28;20030;-62
2022/02/14 10:54:37;;;;;;;13.15;3.85;;;;;;;26.07;23.88;95657.81;4983540;28;20035;-62
2022/02/14 10:57:03;;;;;;;9.02;3.28;;;;;;;26.07;23.94;95650.78;5005105;28;20038;-63
2022/02/14 10:59:29;;;;;;;8.90;3.42;;;;;;;26.10;23.87;95649.72;5009969;28;20250;-63
2022/02/14 11:01:55;;;;;;;6.50;2.67;;;;;;;26.13;24.11;95648.66;5007016;28;20036;-63
2022/02/14 11:04:20;;;;;;;10.07;2.92;;;;;;;26.14;24.08;95647.72;5004303;28;20849;-62
2022/02/14 11:06:46;;;;;;;21.58;3.00;;;;;;;26.15;24.16;95646.75;5004204;28;20128;-61
2022/02/14 11:09:11;;;;;;;5.18;2.75;;;;;;;26.18;24.23;95641.28;4987177;28;20032;-63
2022/02/14 11:11:37;;;;;;;9.57;2.70;;;;;;;26.19;24.18;95642.94;4995512;28;20051;-64
2022/02/14 11:14:03;;;;;;;10.60;3.20;;;;;;;26.21;24.24;95636.63;4984360;28;20116;-62
2022/02/14 11:16:29;;;;;;;9.63;2.67;;;;;;;26.20;24.26;95628.91;4966296;28;22294;-63
2022/02/14 11:18:54;;;;;;;7.78;2.97;;;;;;;26.24;24.56;95638.22;4983404;28;20030;-62
2022/02/14 11:21:20;;;;;;;7.32;2.90;;;;;;;26.26;24.51;95638.97;4980003;28;20587;-63
2022/02/14 11:23:53;;;;;;;12.15;3.28;;;;;;;26.28;24.68;95631.81;4996737;28;20029;-61
2022/02/14 11:27:00;;;;;;;10.15;2.58;;;;;;;26.28;24.70;95626.56;4985037;28;20783;-62
2022/02/14 11:29:41;;;;;;;7.38;2.25;;;;;;;26.30;24.78;95637.78;4930228;28;20038;-62